sensor_id;sensor_type;location;lat;lon;timestamp;temperature;humidity
1812;DHT22;904;47.814;11.134;2023-04-01T00:00:58;9.70;67.30
1812;DHT22;904;47.814;11.134;2023-04-01T00:03:25;9.70;68.20
1812;DHT22;904;47.814;11.134;2023-04-01T00:05:54;9.70;67.30
1812;DHT22;904;47.814;11.134;2023-04-01T00:08:23;9.70;66.80
1812;DHT22;904;47.814;11.134;2023-04-01T00:10:52;9.60;68.00
1812;DHT22;904;47.814;11.134;2023-04-01T00:13:22;9.60;68.40
1812;DHT22;904;47.814;11.134;2023-04-01T00:15:49;9.50;68.10
1812;DHT22;904;47.814;11.134;2023-04-01T00:18:17;9.40;69.00
1812;DHT22;904;47.814;11.134;2023-04-01T00:20:45;9.40;69.90
1812;DHT22;904;47.814;11.134;2023-04-01T00:23:12;9.30;70.00
1812;DHT22;904;47.814;11.134;2023-04-01T00:25:41;9.30;70.30
1812;DHT22;904;47.814;11.134;2023-04-01T00:28:11;9.30;70.10
1812;DHT22;904;47.814;11.134;2023-04-01T00:30:38;9.20;70.10
1812;DHT22;904;47.814;11.134;2023-04-01T00:33:08;9.20;70.30
1812;DHT22;904;47.814;11.134;2023-04-01T00:35:40;9.20;69.90
1812;DHT22;904;47.814;11.134;2023-04-01T00:38:08;9.20;69.80
1812;DHT22;904;47.814;11.134;2023-04-01T00:40:42;9.20;69.50
1812;DHT22;904;47.814;11.134;2023-04-01T00:43:12;9.20;69.00
1812;DHT22;904;47.814;11.134;2023-04-01T00:45:43;9.10;68.40
1812;DHT22;904;47.814;11.134;2023-04-01T00:48:20;9.20;68.60
1812;DHT22;904;47.814;11.134;2023-04-01T00:50:52;9.20;68.20
1812;DHT22;904;47.814;11.134;2023-04-01T00:53:22;9.20;67.70
1812;DHT22;904;47.814;11.134;2023-04-01T00:55:56;9.20;66.60
1812;DHT22;904;47.814;11.134;2023-04-01T00:58:26;9.20;66.70
1812;DHT22;904;47.814;11.134;2023-04-01T01:00:55;9.20;66.10
1812;DHT22;904;47.814;11.134;2023-04-01T01:03:23;9.30;66.70
1812;DHT22;904;47.814;11.134;2023-04-01T01:06:07;9.40;65.20
1812;DHT22;904;47.814;11.134;2023-04-01T01:09:01;9.40;64.30
1812;DHT22;904;47.814;11.134;2023-04-01T01:11:37;9.50;64.10
1812;DHT22;904;47.814;11.134;2023-04-01T01:14:14;9.60;64.20
1812;DHT22;904;47.814;11.134;2023-04-01T01:16:51;9.60;63.80
1812;DHT22;904;47.814;11.134;2023-04-01T01:19:42;9.60;64.10
1812;DHT22;904;47.814;11.134;2023-04-01T01:22:24;9.70;64.50
1812;DHT22;904;47.814;11.134;2023-04-01T01:25:12;9.70;64.30
1812;DHT22;904;47.814;11.134;2023-04-01T01:27:49;9.70;64.20
1812;DHT22;904;47.814;11.134;2023-04-01T01:30:35;9.80;64.00
1812;DHT22;904;47.814;11.134;2023-04-01T01:36:14;9.80;64.10
1812;DHT22;904;47.814;11.134;2023-04-01T01:38:43;9.80;63.80
1812;DHT22;904;47.814;11.134;2023-04-01T01:41:12;9.80;64.20
1812;DHT22;904;47.814;11.134;2023-04-01T01:43:43;9.80;64.10
1812;DHT22;904;47.814;11.134;2023-04-01T01:46:13;9.80;63.60
1812;DHT22;904;47.814;11.134;2023-04-01T01:48:42;9.80;63.20
1812;DHT22;904;47.814;11.134;2023-04-01T01:51:10;9.80;63.70
1812;DHT22;904;47.814;11.134;2023-04-01T01:53:39;9.80;63.50
1812;DHT22;904;47.814;11.134;2023-04-01T01:56:06;9.70;63.30
1812;DHT22;904;47.814;11.134;2023-04-01T01:58:36;9.70;64.10
1812;DHT22;904;47.814;11.134;2023-04-01T02:01:11;9.70;64.10
1812;DHT22;904;47.814;11.134;2023-04-01T02:03:40;9.70;64.10
1812;DHT22;904;47.814;11.134;2023-04-01T02:06:13;9.70;64.20
1812;DHT22;904;47.814;11.134;2023-04-01T02:08:44;9.60;64.90
1812;DHT22;904;47.814;11.134;2023-04-01T02:11:16;9.60;64.70
1812;DHT22;904;47.814;11.134;2023-04-01T02:13:52;9.60;64.60
1812;DHT22;904;47.814;11.134;2023-04-01T02:16:23;9.60;64.50
1812;DHT22;904;47.814;11.134;2023-04-01T02:18:54;9.60;64.70
1812;DHT22;904;47.814;11.134;2023-04-01T02:21:26;9.60;65.50
1812;DHT22;904;47.814;11.134;2023-04-01T02:23:57;9.60;65.90
1812;DHT22;904;47.814;11.134;2023-04-01T02:26:25;9.60;66.10
1812;DHT22;904;47.814;11.134;2023-04-01T02:28:54;9.60;67.20
1812;DHT22;904;47.814;11.134;2023-04-01T02:31:23;9.60;68.00
1812;DHT22;904;47.814;11.134;2023-04-01T02:33:54;9.50;68.70
1812;DHT22;904;47.814;11.134;2023-04-01T02:36:24;9.60;69.40
1812;DHT22;904;47.814;11.134;2023-04-01T02:38:56;9.50;70.10
1812;DHT22;904;47.814;11.134;2023-04-01T02:41:28;9.50;71.70
1812;DHT22;904;47.814;11.134;2023-04-01T02:43:58;9.40;72.10
1812;DHT22;904;47.814;11.134;2023-04-01T02:46:28;9.40;72.60
1812;DHT22;904;47.814;11.134;2023-04-01T02:48:55;9.40;73.70
1812;DHT22;904;47.814;11.134;2023-04-01T02:51:22;9.30;73.50
1812;DHT22;904;47.814;11.134;2023-04-01T02:53:50;9.30;74.10
1812;DHT22;904;47.814;11.134;2023-04-01T02:56:19;9.20;74.10
1812;DHT22;904;47.814;11.134;2023-04-01T02:58:50;9.20;74.40
1812;DHT22;904;47.814;11.134;2023-04-01T03:01:17;9.10;74.80
1812;DHT22;904;47.814;11.134;2023-04-01T03:03:45;9.10;74.70
1812;DHT22;904;47.814;11.134;2023-04-01T03:06:13;9.00;74.80
1812;DHT22;904;47.814;11.134;2023-04-01T03:08:42;9.00;74.00
1812;DHT22;904;47.814;11.134;2023-04-01T03:11:12;8.90;74.00
1812;DHT22;904;47.814;11.134;2023-04-01T03:13:41;8.80;74.80
1812;DHT22;904;47.814;11.134;2023-04-01T03:16:09;8.80;75.10
1812;DHT22;904;47.814;11.134;2023-04-01T03:18:36;8.70;75.50
1812;DHT22;904;47.814;11.134;2023-04-01T03:21:18;8.70;76.30
1812;DHT22;904;47.814;11.134;2023-04-01T03:23:45;8.70;76.20
1812;DHT22;904;47.814;11.134;2023-04-01T03:26:24;8.60;76.20
1812;DHT22;904;47.814;11.134;2023-04-01T03:28:56;8.60;76.80
1812;DHT22;904;47.814;11.134;2023-04-01T03:31:24;8.60;76.90
1812;DHT22;904;47.814;11.134;2023-04-01T03:33:52;8.60;77.10
1812;DHT22;904;47.814;11.134;2023-04-01T03:36:19;8.60;77.10
1812;DHT22;904;47.814;11.134;2023-04-01T03:38:47;8.60;77.10
1812;DHT22;904;47.814;11.134;2023-04-01T03:41:16;8.70;77.20
1812;DHT22;904;47.814;11.134;2023-04-01T03:43:45;8.70;77.20
1812;DHT22;904;47.814;11.134;2023-04-01T03:46:19;8.70;77.20
1812;DHT22;904;47.814;11.134;2023-04-01T03:48:46;8.70;77.60
1812;DHT22;904;47.814;11.134;2023-04-01T03:51:16;8.70;77.30
1812;DHT22;904;47.814;11.134;2023-04-01T03:53:43;8.80;76.30
1812;DHT22;904;47.814;11.134;2023-04-01T03:56:11;8.80;76.10
1812;DHT22;904;47.814;11.134;2023-04-01T03:58:40;8.80;76.00
1812;DHT22;904;47.814;11.134;2023-04-01T04:01:15;8.80;75.40
1812;DHT22;904;47.814;11.134;2023-04-01T04:03:43;8.80;75.80
1812;DHT22;904;47.814;11.134;2023-04-01T04:06:15;8.80;75.60
1812;DHT22;904;47.814;11.134;2023-04-01T04:08:49;8.70;74.90
1812;DHT22;904;47.814;11.134;2023-04-01T04:11:23;8.70;74.50
1812;DHT22;904;47.814;11.134;2023-04-01T04:13:51;8.80;74.30
1812;DHT22;904;47.814;11.134;2023-04-01T04:16:20;8.80;73.40
1812;DHT22;904;47.814;11.134;2023-04-01T04:18:49;8.70;73.80
1812;DHT22;904;47.814;11.134;2023-04-01T04:21:17;8.70;73.40
1812;DHT22;904;47.814;11.134;2023-04-01T04:23:45;8.80;72.90
1812;DHT22;904;47.814;11.134;2023-04-01T04:26:13;8.80;72.60
1812;DHT22;904;47.814;11.134;2023-04-01T04:28:41;8.70;72.60
1812;DHT22;904;47.814;11.134;2023-04-01T04:31:13;8.70;72.40
1812;DHT22;904;47.814;11.134;2023-04-01T04:33:44;8.70;72.10
1812;DHT22;904;47.814;11.134;2023-04-01T04:36:13;8.70;72.00
1812;DHT22;904;47.814;11.134;2023-04-01T04:38:41;8.70;71.40
1812;DHT22;904;47.814;11.134;2023-04-01T04:41:11;8.70;71.50
1812;DHT22;904;47.814;11.134;2023-04-01T04:43:49;8.70;71.30
1812;DHT22;904;47.814;11.134;2023-04-01T04:46:18;8.60;71.60
1812;DHT22;904;47.814;11.134;2023-04-01T04:48:45;8.60;72.00
1812;DHT22;904;47.814;11.134;2023-04-01T04:51:15;8.60;71.20
1812;DHT22;904;47.814;11.134;2023-04-01T04:53:48;8.70;71.30
1812;DHT22;904;47.814;11.134;2023-04-01T04:56:18;8.60;71.10
1812;DHT22;904;47.814;11.134;2023-04-01T04:58:46;8.60;71.20
1812;DHT22;904;47.814;11.134;2023-04-01T05:01:15;8.60;71.20
1812;DHT22;904;47.814;11.134;2023-04-01T05:03:42;8.50;71.60
1812;DHT22;904;47.814;11.134;2023-04-01T05:06:17;8.50;71.00
1812;DHT22;904;47.814;11.134;2023-04-01T05:11:38;8.50;71.90
1812;DHT22;904;47.814;11.134;2023-04-01T05:14:12;8.50;71.50
1812;DHT22;904;47.814;11.134;2023-04-01T05:16:40;8.50;71.70
1812;DHT22;904;47.814;11.134;2023-04-01T05:19:07;8.50;71.80
1812;DHT22;904;47.814;11.134;2023-04-01T05:21:36;8.50;71.70
1812;DHT22;904;47.814;11.134;2023-04-01T05:24:09;8.60;70.90
1812;DHT22;904;47.814;11.134;2023-04-01T05:26:39;8.60;70.90
1812;DHT22;904;47.814;11.134;2023-04-01T05:29:07;8.60;71.10
1812;DHT22;904;47.814;11.134;2023-04-01T05:31:36;8.70;71.00
1812;DHT22;904;47.814;11.134;2023-04-01T05:34:03;8.70;70.90
1812;DHT22;904;47.814;11.134;2023-04-01T05:36:30;8.80;70.80
1812;DHT22;904;47.814;11.134;2023-04-01T05:38:59;8.80;70.00
1812;DHT22;904;47.814;11.134;2023-04-01T05:41:26;8.90;70.20
1812;DHT22;904;47.814;11.134;2023-04-01T05:43:54;9.00;70.20
1812;DHT22;904;47.814;11.134;2023-04-01T05:46:21;9.00;69.30
1812;DHT22;904;47.814;11.134;2023-04-01T05:48:48;9.00;68.90
1812;DHT22;904;47.814;11.134;2023-04-01T05:51:16;9.10;69.00
1812;DHT22;904;47.814;11.134;2023-04-01T05:53:49;9.20;68.20
1812;DHT22;904;47.814;11.134;2023-04-01T05:56:22;9.20;67.70
1812;DHT22;904;47.814;11.134;2023-04-01T05:58:54;9.30;67.20
1812;DHT22;904;47.814;11.134;2023-04-01T06:01:23;9.40;66.80
1812;DHT22;904;47.814;11.134;2023-04-01T06:03:50;9.40;67.00
1812;DHT22;904;47.814;11.134;2023-04-01T06:06:26;9.40;66.60
1812;DHT22;904;47.814;11.134;2023-04-01T06:08:57;9.50;66.40
1812;DHT22;904;47.814;11.134;2023-04-01T06:11:33;9.60;65.40
1812;DHT22;904;47.814;11.134;2023-04-01T06:14:11;9.60;65.10
1812;DHT22;904;47.814;11.134;2023-04-01T06:16:54;9.60;65.10
1812;DHT22;904;47.814;11.134;2023-04-01T06:19:36;9.70;64.70
1812;DHT22;904;47.814;11.134;2023-04-01T06:22:34;9.70;64.30
1812;DHT22;904;47.814;11.134;2023-04-01T06:25:43;9.80;63.70
1812;DHT22;904;47.814;11.134;2023-04-01T06:28:48;9.90;62.90
1812;DHT22;904;47.814;11.134;2023-04-01T06:31:29;10.00;61.10
1812;DHT22;904;47.814;11.134;2023-04-01T06:34:25;10.10;59.90
1812;DHT22;904;47.814;11.134;2023-04-01T06:37:12;10.20;59.70
1812;DHT22;904;47.814;11.134;2023-04-01T06:39:53;10.20;59.50
1812;DHT22;904;47.814;11.134;2023-04-01T06:42:35;10.30;59.20
1812;DHT22;904;47.814;11.134;2023-04-01T06:45:16;10.40;58.50
1812;DHT22;904;47.814;11.134;2023-04-01T06:48:01;10.60;58.30
1812;DHT22;904;47.814;11.134;2023-04-01T06:50:35;10.60;57.30
1812;DHT22;904;47.814;11.134;2023-04-01T06:53:12;10.60;57.80
1812;DHT22;904;47.814;11.134;2023-04-01T06:55:47;10.70;57.80
1812;DHT22;904;47.814;11.134;2023-04-01T06:58:20;10.70;57.60
1812;DHT22;904;47.814;11.134;2023-04-01T07:00:52;10.80;57.90
1812;DHT22;904;47.814;11.134;2023-04-01T07:03:29;10.80;58.00
1812;DHT22;904;47.814;11.134;2023-04-01T07:06:03;11.00;58.30
1812;DHT22;904;47.814;11.134;2023-04-01T07:08:40;11.10;57.50
1812;DHT22;904;47.814;11.134;2023-04-01T07:11:11;11.30;57.40
1812;DHT22;904;47.814;11.134;2023-04-01T07:13:47;11.50;56.90
1812;DHT22;904;47.814;11.134;2023-04-01T07:16:21;11.80;56.00
1812;DHT22;904;47.814;11.134;2023-04-01T07:19:03;12.00;55.90
1812;DHT22;904;47.814;11.134;2023-04-01T07:21:35;12.30;55.00
1812;DHT22;904;47.814;11.134;2023-04-01T07:24:09;12.70;54.50
1812;DHT22;904;47.814;11.134;2023-04-01T07:26:38;13.10;53.60
1812;DHT22;904;47.814;11.134;2023-04-01T07:29:09;13.90;52.60
1812;DHT22;904;47.814;11.134;2023-04-01T07:31:53;15.40;49.10
1812;DHT22;904;47.814;11.134;2023-04-01T07:34:31;18.40;43.40
1812;DHT22;904;47.814;11.134;2023-04-01T07:37:08;21.80;36.90
1812;DHT22;904;47.814;11.134;2023-04-01T07:39:47;24.60;31.10
1812;DHT22;904;47.814;11.134;2023-04-01T07:42:30;26.90;27.40
1812;DHT22;904;47.814;11.134;2023-04-01T07:45:05;28.50;24.60
1812;DHT22;904;47.814;11.134;2023-04-01T07:47:52;30.00;22.80
1812;DHT22;904;47.814;11.134;2023-04-01T07:50:27;31.20;21.10
1812;DHT22;904;47.814;11.134;2023-04-01T07:53:02;32.50;19.60
1812;DHT22;904;47.814;11.134;2023-04-01T07:55:39;32.20;18.20
1812;DHT22;904;47.814;11.134;2023-04-01T07:58:19;30.90;19.10
1812;DHT22;904;47.814;11.134;2023-04-01T08:00:56;31.40;18.80
1812;DHT22;904;47.814;11.134;2023-04-01T08:03:43;32.90;18.20
1812;DHT22;904;47.814;11.134;2023-04-01T08:06:19;34.60;16.40
1812;DHT22;904;47.814;11.134;2023-04-01T08:08:58;36.20;16.30
1812;DHT22;904;47.814;11.134;2023-04-01T08:11:38;37.50;14.10
1812;DHT22;904;47.814;11.134;2023-04-01T08:14:13;37.30;13.20
1812;DHT22;904;47.814;11.134;2023-04-01T08:16:49;36.70;13.50
1812;DHT22;904;47.814;11.134;2023-04-01T08:19:27;37.00;13.90
1812;DHT22;904;47.814;11.134;2023-04-01T08:21:58;37.60;13.40
1812;DHT22;904;47.814;11.134;2023-04-01T08:24:29;38.70;12.50
1812;DHT22;904;47.814;11.134;2023-04-01T08:27:05;38.20;11.30
1812;DHT22;904;47.814;11.134;2023-04-01T08:29:38;35.20;12.40
1812;DHT22;904;47.814;11.134;2023-04-01T08:32:16;35.50;12.90
1812;DHT22;904;47.814;11.134;2023-04-01T08:34:51;37.00;12.30
1812;DHT22;904;47.814;11.134;2023-04-01T08:37:23;37.90;11.70
1812;DHT22;904;47.814;11.134;2023-04-01T08:39:55;37.90;11.90
1812;DHT22;904;47.814;11.134;2023-04-01T08:42:45;39.20;11.70
1812;DHT22;904;47.814;11.134;2023-04-01T08:45:24;38.40;11.20
1812;DHT22;904;47.814;11.134;2023-04-01T08:48:36;36.60;11.10
1812;DHT22;904;47.814;11.134;2023-04-01T08:51:26;35.30;11.80
1812;DHT22;904;47.814;11.134;2023-04-01T08:54:29;33.90;12.50
1812;DHT22;904;47.814;11.134;2023-04-01T08:57:04;31.40;13.90
1812;DHT22;904;47.814;11.134;2023-04-01T08:59:57;30.70;15.70
1812;DHT22;904;47.814;11.134;2023-04-01T09:02:55;33.20;14.80
1812;DHT22;904;47.814;11.134;2023-04-01T09:09:19;35.90;13.30
1812;DHT22;904;47.814;11.134;2023-04-01T09:18:24;36.40;12.00
1812;DHT22;904;47.814;11.134;2023-04-01T09:21:09;33.80;12.00
1812;DHT22;904;47.814;11.134;2023-04-01T09:23:51;30.70;13.30
1812;DHT22;904;47.814;11.134;2023-04-01T09:26:43;28.10;15.40
1812;DHT22;904;47.814;11.134;2023-04-01T09:29:24;26.00;17.50
1812;DHT22;904;47.814;11.134;2023-04-01T09:35:21;23.10;20.40
1812;DHT22;904;47.814;11.134;2023-04-01T09:37:54;21.80;22.30
1812;DHT22;904;47.814;11.134;2023-04-01T09:40:40;21.10;23.00
1812;DHT22;904;47.814;11.134;2023-04-01T09:43:26;20.30;24.10
1812;DHT22;904;47.814;11.134;2023-04-01T09:46:06;19.80;24.70
1812;DHT22;904;47.814;11.134;2023-04-01T09:51:37;19.50;25.80
1812;DHT22;904;47.814;11.134;2023-04-01T09:54:25;19.90;25.30
1812;DHT22;904;47.814;11.134;2023-04-01T09:57:17;19.80;25.30
1812;DHT22;904;47.814;11.134;2023-04-01T10:09:41;19.30;26.10
1812;DHT22;904;47.814;11.134;2023-04-01T10:12:55;18.90;26.40
1812;DHT22;904;47.814;11.134;2023-04-01T10:31:02;18.80;28.80
1812;DHT22;904;47.814;11.134;2023-04-01T10:33:58;19.10;28.40
1812;DHT22;904;47.814;11.134;2023-04-01T10:36:47;20.40;27.90
1812;DHT22;904;47.814;11.134;2023-04-01T10:39:33;21.70;26.90
1812;DHT22;904;47.814;11.134;2023-04-01T10:42:31;21.70;25.80
1812;DHT22;904;47.814;11.134;2023-04-01T10:48:16;22.70;25.30
1812;DHT22;904;47.814;11.134;2023-04-01T10:51:10;22.20;24.70
1812;DHT22;904;47.814;11.134;2023-04-01T10:54:02;21.30;25.70
1812;DHT22;904;47.814;11.134;2023-04-01T10:56:50;20.50;26.10
1812;DHT22;904;47.814;11.134;2023-04-01T10:59:42;20.10;27.00
1812;DHT22;904;47.814;11.134;2023-04-01T11:18:41;18.70;29.20
1812;DHT22;904;47.814;11.134;2023-04-01T11:24:45;18.20;30.50
1812;DHT22;904;47.814;11.134;2023-04-01T11:30:22;17.70;30.90
1812;DHT22;904;47.814;11.134;2023-04-01T11:32:59;17.30;31.90
1812;DHT22;904;47.814;11.134;2023-04-01T11:36:08;17.00;32.80
1812;DHT22;904;47.814;11.134;2023-04-01T11:38:56;16.80;32.90
1812;DHT22;904;47.814;11.134;2023-04-01T11:41:37;16.60;33.60
1812;DHT22;904;47.814;11.134;2023-04-01T11:44:19;16.40;34.20
1812;DHT22;904;47.814;11.134;2023-04-01T11:47:15;16.20;34.80
1812;DHT22;904;47.814;11.134;2023-04-01T11:53:03;15.70;36.60
1812;DHT22;904;47.814;11.134;2023-04-01T11:55:38;15.50;37.70
1812;DHT22;904;47.814;11.134;2023-04-01T12:01:29;15.10;38.60
1812;DHT22;904;47.814;11.134;2023-04-01T12:07:15;14.80;38.90
1812;DHT22;904;47.814;11.134;2023-04-01T12:10:01;14.50;39.70
1812;DHT22;904;47.814;11.134;2023-04-01T12:12:38;14.30;40.20
1812;DHT22;904;47.814;11.134;2023-04-01T12:15:29;14.00;41.00
1812;DHT22;904;47.814;11.134;2023-04-01T12:18:05;13.80;41.50
1812;DHT22;904;47.814;11.134;2023-04-01T12:20:49;13.60;42.50
1812;DHT22;904;47.814;11.134;2023-04-01T12:23:40;13.50;42.20
1812;DHT22;904;47.814;11.134;2023-04-01T12:26:35;13.30;42.80
1812;DHT22;904;47.814;11.134;2023-04-01T12:31:59;13.00;43.90
1812;DHT22;904;47.814;11.134;2023-04-01T12:34:48;12.90;43.60
1812;DHT22;904;47.814;11.134;2023-04-01T12:37:32;12.90;44.20
1812;DHT22;904;47.814;11.134;2023-04-01T12:40:20;12.90;44.60
1812;DHT22;904;47.814;11.134;2023-04-01T12:43:11;12.90;43.80
1812;DHT22;904;47.814;11.134;2023-04-01T12:45:46;12.90;43.80
1812;DHT22;904;47.814;11.134;2023-04-01T12:51:50;12.70;43.70
1812;DHT22;904;47.814;11.134;2023-04-01T12:54:49;12.70;44.20
1812;DHT22;904;47.814;11.134;2023-04-01T13:00:29;12.60;44.40
1812;DHT22;904;47.814;11.134;2023-04-01T13:03:16;12.70;44.30
1812;DHT22;904;47.814;11.134;2023-04-01T13:06:07;12.70;44.20
1812;DHT22;904;47.814;11.134;2023-04-01T13:08:43;12.80;44.00
1812;DHT22;904;47.814;11.134;2023-04-01T13:11:20;12.80;44.30
1812;DHT22;904;47.814;11.134;2023-04-01T13:14:26;12.80;44.90
1812;DHT22;904;47.814;11.134;2023-04-01T13:17:04;13.00;45.00
1812;DHT22;904;47.814;11.134;2023-04-01T13:19:43;13.00;44.40
1812;DHT22;904;47.814;11.134;2023-04-01T13:22:22;13.10;44.90
1812;DHT22;904;47.814;11.134;2023-04-01T13:24:58;13.20;44.80
1812;DHT22;904;47.814;11.134;2023-04-01T13:27:33;13.20;44.80
1812;DHT22;904;47.814;11.134;2023-04-01T13:30:20;13.20;44.20
1812;DHT22;904;47.814;11.134;2023-04-01T13:32:55;13.20;44.40
1812;DHT22;904;47.814;11.134;2023-04-01T13:35:33;13.20;44.60
1812;DHT22;904;47.814;11.134;2023-04-01T13:38:19;13.10;44.90
1812;DHT22;904;47.814;11.134;2023-04-01T13:40:54;13.20;44.50
1812;DHT22;904;47.814;11.134;2023-04-01T13:43:51;13.10;44.90
1812;DHT22;904;47.814;11.134;2023-04-01T13:46:41;13.00;44.40
1812;DHT22;904;47.814;11.134;2023-04-01T13:49:33;13.00;45.30
1812;DHT22;904;47.814;11.134;2023-04-01T13:52:32;12.90;45.70
1812;DHT22;904;47.814;11.134;2023-04-01T14:01:04;13.00;46.40
1812;DHT22;904;47.814;11.134;2023-04-01T14:03:47;13.00;46.20
1812;DHT22;904;47.814;11.134;2023-04-01T14:06:31;13.00;46.40
1812;DHT22;904;47.814;11.134;2023-04-01T14:12:04;12.90;46.10
1812;DHT22;904;47.814;11.134;2023-04-01T14:14:46;12.90;46.60
1812;DHT22;904;47.814;11.134;2023-04-01T14:17:31;12.90;46.60
1812;DHT22;904;47.814;11.134;2023-04-01T14:20:22;12.90;47.20
1812;DHT22;904;47.814;11.134;2023-04-01T14:23:13;12.90;47.40
1812;DHT22;904;47.814;11.134;2023-04-01T14:26:10;12.90;48.40
1812;DHT22;904;47.814;11.134;2023-04-01T14:28:45;12.90;48.70
1812;DHT22;904;47.814;11.134;2023-04-01T14:31:31;12.80;49.40
1812;DHT22;904;47.814;11.134;2023-04-01T14:34:11;12.80;50.20
1812;DHT22;904;47.814;11.134;2023-04-01T14:36:55;12.90;50.60
1812;DHT22;904;47.814;11.134;2023-04-01T14:39:47;12.90;50.50
1812;DHT22;904;47.814;11.134;2023-04-01T14:42:45;12.80;51.40
1812;DHT22;904;47.814;11.134;2023-04-01T14:48:21;12.80;51.30
1812;DHT22;904;47.814;11.134;2023-04-01T14:50:53;12.80;50.80
1812;DHT22;904;47.814;11.134;2023-04-01T14:53:36;12.80;50.80
1812;DHT22;904;47.814;11.134;2023-04-01T14:56:08;12.90;51.20
1812;DHT22;904;47.814;11.134;2023-04-01T14:58:50;13.00;51.20
1812;DHT22;904;47.814;11.134;2023-04-01T15:01:40;13.00;51.50
1812;DHT22;904;47.814;11.134;2023-04-01T15:04:37;13.00;50.80
1812;DHT22;904;47.814;11.134;2023-04-01T15:10:08;13.00;51.00
1812;DHT22;904;47.814;11.134;2023-04-01T15:13:04;13.10;50.50
1812;DHT22;904;47.814;11.134;2023-04-01T15:15:45;13.20;50.90
1812;DHT22;904;47.814;11.134;2023-04-01T15:18:19;13.30;49.90
1812;DHT22;904;47.814;11.134;2023-04-01T15:21:06;13.40;50.10
1812;DHT22;904;47.814;11.134;2023-04-01T15:23:51;13.50;50.40
1812;DHT22;904;47.814;11.134;2023-04-01T15:26:38;13.70;50.50
1812;DHT22;904;47.814;11.134;2023-04-01T15:29:36;13.80;50.00
1812;DHT22;904;47.814;11.134;2023-04-01T15:32:13;14.00;50.70
1812;DHT22;904;47.814;11.134;2023-04-01T15:34:51;14.20;50.50
1812;DHT22;904;47.814;11.134;2023-04-01T15:37:29;14.20;49.80
1812;DHT22;904;47.814;11.134;2023-04-01T15:40:04;14.20;49.70
1812;DHT22;904;47.814;11.134;2023-04-01T15:43:01;14.00;49.10
1812;DHT22;904;47.814;11.134;2023-04-01T15:45:45;13.90;49.00
1812;DHT22;904;47.814;11.134;2023-04-01T15:48:26;13.80;48.80
1812;DHT22;904;47.814;11.134;2023-04-01T15:51:02;13.70;48.80
1812;DHT22;904;47.814;11.134;2023-04-01T15:53:46;13.60;48.80
1812;DHT22;904;47.814;11.134;2023-04-01T15:56:26;13.40;48.20
1812;DHT22;904;47.814;11.134;2023-04-01T15:59:02;13.30;48.80
1812;DHT22;904;47.814;11.134;2023-04-01T16:01:43;13.20;49.30
1812;DHT22;904;47.814;11.134;2023-04-01T16:04:36;13.10;49.60
1812;DHT22;904;47.814;11.134;2023-04-01T16:07:28;13.00;50.10
1812;DHT22;904;47.814;11.134;2023-04-01T16:10:13;12.90;50.00
1812;DHT22;904;47.814;11.134;2023-04-01T16:12:56;12.80;50.50
1812;DHT22;904;47.814;11.134;2023-04-01T16:15:32;12.80;50.20
1812;DHT22;904;47.814;11.134;2023-04-01T16:18:20;12.70;50.30
1812;DHT22;904;47.814;11.134;2023-04-01T16:20:57;12.70;51.00
1812;DHT22;904;47.814;11.134;2023-04-01T16:23:30;12.60;51.00
1812;DHT22;904;47.814;11.134;2023-04-01T16:26:05;12.50;50.80
1812;DHT22;904;47.814;11.134;2023-04-01T16:28:38;12.50;51.50
1812;DHT22;904;47.814;11.134;2023-04-01T16:31:29;12.30;52.00
1812;DHT22;904;47.814;11.134;2023-04-01T16:34:04;12.30;51.50
1812;DHT22;904;47.814;11.134;2023-04-01T16:36:37;12.20;51.60
1812;DHT22;904;47.814;11.134;2023-04-01T16:39:26;12.10;52.00
1812;DHT22;904;47.814;11.134;2023-04-01T16:42:13;12.00;52.20
1812;DHT22;904;47.814;11.134;2023-04-01T16:44:53;12.00;52.60
1812;DHT22;904;47.814;11.134;2023-04-01T16:47:23;11.90;52.90
1812;DHT22;904;47.814;11.134;2023-04-01T16:49:59;11.90;53.20
1812;DHT22;904;47.814;11.134;2023-04-01T16:52:42;11.80;53.60
1812;DHT22;904;47.814;11.134;2023-04-01T16:55:19;11.90;53.50
1812;DHT22;904;47.814;11.134;2023-04-01T16:57:51;11.90;53.70
1812;DHT22;904;47.814;11.134;2023-04-01T17:00:38;11.90;53.70
1812;DHT22;904;47.814;11.134;2023-04-01T17:03:13;11.90;53.50
1812;DHT22;904;47.814;11.134;2023-04-01T17:06:00;11.90;53.50
1812;DHT22;904;47.814;11.134;2023-04-01T17:08:55;11.90;53.70
1812;DHT22;904;47.814;11.134;2023-04-01T17:11:28;11.80;53.80
1812;DHT22;904;47.814;11.134;2023-04-01T17:14:20;11.80;53.80
1812;DHT22;904;47.814;11.134;2023-04-01T17:17:07;11.70;54.00
1812;DHT22;904;47.814;11.134;2023-04-01T17:19:49;11.70;54.20
1812;DHT22;904;47.814;11.134;2023-04-01T17:22:37;11.60;55.10
1812;DHT22;904;47.814;11.134;2023-04-01T17:28:14;11.40;55.30
1812;DHT22;904;47.814;11.134;2023-04-01T17:30:50;11.30;55.70
1812;DHT22;904;47.814;11.134;2023-04-01T17:33:50;11.20;56.20
1812;DHT22;904;47.814;11.134;2023-04-01T17:36:36;11.10;56.80
1812;DHT22;904;47.814;11.134;2023-04-01T17:39:29;11.00;57.30
1812;DHT22;904;47.814;11.134;2023-04-01T17:42:09;11.00;57.70
1812;DHT22;904;47.814;11.134;2023-04-01T17:47:53;10.90;58.50
1812;DHT22;904;47.814;11.134;2023-04-01T17:50:47;10.80;58.90
1812;DHT22;904;47.814;11.134;2023-04-01T17:53:26;10.70;59.40
1812;DHT22;904;47.814;11.134;2023-04-01T17:56:22;10.60;59.70
1812;DHT22;904;47.814;11.134;2023-04-01T17:58:59;10.60;60.10
1812;DHT22;904;47.814;11.134;2023-04-01T18:01:40;10.50;60.50
1812;DHT22;904;47.814;11.134;2023-04-01T18:04:34;10.50;60.90
1812;DHT22;904;47.814;11.134;2023-04-01T18:10:14;10.40;60.80
1812;DHT22;904;47.814;11.134;2023-04-01T18:15:49;10.20;61.30
1812;DHT22;904;47.814;11.134;2023-04-01T18:18:37;10.20;60.80
1812;DHT22;904;47.814;11.134;2023-04-01T18:21:27;10.20;61.10
1812;DHT22;904;47.814;11.134;2023-04-01T18:24:02;10.20;60.90
1812;DHT22;904;47.814;11.134;2023-04-01T18:26:43;10.10;60.70
1812;DHT22;904;47.814;11.134;2023-04-01T18:29:36;10.10;60.80
1812;DHT22;904;47.814;11.134;2023-04-01T18:32:24;10.00;60.90
1812;DHT22;904;47.814;11.134;2023-04-01T18:35:00;10.10;61.70
1812;DHT22;904;47.814;11.134;2023-04-01T18:37:34;10.10;60.40
1812;DHT22;904;47.814;11.134;2023-04-01T18:40:15;10.10;59.90
1812;DHT22;904;47.814;11.134;2023-04-01T18:42:53;10.00;59.50
1812;DHT22;904;47.814;11.134;2023-04-01T18:45:31;10.00;59.10
1812;DHT22;904;47.814;11.134;2023-04-01T18:48:11;10.00;59.20
1812;DHT22;904;47.814;11.134;2023-04-01T18:50:50;9.90;59.90
1812;DHT22;904;47.814;11.134;2023-04-01T18:53:25;9.90;59.90
1812;DHT22;904;47.814;11.134;2023-04-01T18:56:05;9.90;59.70
1812;DHT22;904;47.814;11.134;2023-04-01T18:58:35;9.90;59.80
1812;DHT22;904;47.814;11.134;2023-04-01T19:01:11;9.80;60.10
1812;DHT22;904;47.814;11.134;2023-04-01T19:03:44;9.80;60.30
1812;DHT22;904;47.814;11.134;2023-04-01T19:06:20;9.70;60.20
1812;DHT22;904;47.814;11.134;2023-04-01T19:08:48;9.70;60.40
1812;DHT22;904;47.814;11.134;2023-04-01T19:11:25;9.70;60.80
1812;DHT22;904;47.814;11.134;2023-04-01T19:14:00;9.70;61.00
1812;DHT22;904;47.814;11.134;2023-04-01T19:16:43;9.70;61.00